Time;durP1;ratioP1;P1;durP2;ratioP2;P2;SDS_P1;SDS_P2;PMS_P1;PMS_P2;Temp;Humidity;BMP_temperature;BMP_pressure;BME280_temperature;BME280_humidity;BME280_pressure;Samples;Min_cycle;Max_cycle;Signal;HPM_P1;HPM_P2
2023/12/23 00:00:19;;;;;;;0.30;0.10;;;8.80;91.60;;;;;;4945874;28;20066;-63
2023/12/23 00:02:45;;;;;;;0.30;0.30;;;8.70;91.60;;;;;;4946539;28;20031;-65
2023/12/23 00:05:11;;;;;;;0.30;0.10;;;8.70;91.60;;;;;;4951242;28;20130;-64
2023/12/23 00:07:36;;;;;;;0.88;0.20;;;8.70;91.60;;;;;;4944667;28;20035;-64
2023/12/23 00:10:03;;;;;;;1.10;0.10;;;8.70;91.50;;;;;;4951154;28;20031;-64
2023/12/23 00:12:29;;;;;;;0.10;0.10;;;8.70;91.60;;;;;;4951337;28;20035;-64
2023/12/23 00:14:55;;;;;;;0.50;0.10;;;8.70;91.60;;;;;;4946770;28;20039;-64
2023/12/23 00:17:20;;;;;;;0.10;0.10;;;8.70;91.70;;;;;;4947259;28;20043;-64
2023/12/23 00:19:46;;;;;;;0.25;0.15;;;8.70;91.70;;;;;;4949185;28;20034;-64
2023/12/23 00:22:12;;;;;;;0.30;0.13;;;8.70;91.70;;;;;;4954204;28;20598;-64
2023/12/23 00:24:37;;;;;;;0.50;0.10;;;8.60;91.70;;;;;;4957302;28;20031;-64
2023/12/23 00:27:03;;;;;;;0.20;0.20;;;8.60;91.70;;;;;;4943909;28;20495;-64
2023/12/23 00:29:29;;;;;;;0.17;0.10;;;8.70;91.70;;;;;;4948289;28;20032;-64
2023/12/23 00:31:54;;;;;;;0.57;0.20;;;8.60;91.70;;;;;;4946878;28;20054;-62
2023/12/23 00:34:20;;;;;;;0.20;0.10;;;8.60;91.70;;;;;;4946175;28;20427;-63
2023/12/23 00:36:46;;;;;;;0.63;0.28;;;8.60;91.70;;;;;;4946619;28;20042;-64
2023/12/23 00:39:12;;;;;;;0.30;0.20;;;8.70;91.70;;;;;;4949019;28;20070;-63
2023/12/23 00:41:38;;;;;;;0.10;0.10;;;8.60;91.60;;;;;;4951040;28;20551;-64
2023/12/23 00:44:04;;;;;;;0.75;0.20;;;8.60;91.70;;;;;;4951350;28;20027;-63
2023/12/23 00:46:29;;;;;;;0.20;0.20;;;8.60;91.60;;;;;;4946277;28;20107;-64
2023/12/23 00:48:55;;;;;;;0.98;0.10;;;8.60;91.70;;;;;;4946557;28;20042;-65
2023/12/23 00:51:21;;;;;;;0.63;0.20;;;8.60;91.70;;;;;;4944491;28;20816;-64
2023/12/23 00:53:47;;;;;;;0.17;0.10;;;8.60;91.60;;;;;;4946665;28;20066;-65
2023/12/23 00:56:22;;;;;;;1.35;0.20;;;8.60;91.60;;;;;;4947649;28;20117;-64
2023/12/23 00:58:48;;;;;;;;;;;8.60;91.70;;;;;;4951802;28;20039;-64
2023/12/23 01:01:14;;;;;;;0.75;0.10;;;8.70;91.90;;;;;;4949315;28;19921;-64
2023/12/23 01:03:40;;;;;;;0.28;0.17;;;8.60;91.50;;;;;;4948873;28;20039;-64
2023/12/23 01:06:05;;;;;;;0.55;0.20;;;8.60;91.50;;;;;;4945981;28;20051;-64
2023/12/23 01:08:31;;;;;;;0.47;0.20;;;8.60;91.50;;;;;;4941136;28;20380;-64
2023/12/23 01:10:57;;;;;;;0.60;0.10;;;8.60;91.50;;;;;;4946032;28;20090;-64
2023/12/23 01:13:22;;;;;;;0.00;0.00;;;8.60;91.50;;;;;;4951532;28;20039;-64
2023/12/23 01:15:48;;;;;;;0.40;0.10;;;8.60;91.50;;;;;;4948750;28;20509;-64
2023/12/23 01:18:14;;;;;;;1.23;0.10;;;8.60;91.50;;;;;;4949082;28;20432;-64
2023/12/23 01:20:42;;;;;;;0.30;0.10;;;8.70;91.50;;;;;;4950368;28;20039;-64
2023/12/23 01:23:07;;;;;;;0.17;0.10;;;8.60;91.50;;;;;;4947637;28;20082;-64
2023/12/23 01:25:33;;;;;;;0.80;0.10;;;8.60;91.50;;;;;;4944915;28;20487;-64
2023/12/23 01:28:04;;;;;;;0.35;0.10;;;8.60;91.50;;;;;;4949303;28;20566;-64
2023/12/23 01:30:33;;;;;;;0.50;0.20;;;8.60;91.80;;;;;;4943813;28;20411;-64
2023/12/23 01:32:58;;;;;;;0.10;0.00;;;8.60;91.50;;;;;;4945406;28;20062;-64
2023/12/23 01:35:24;;;;;;;0.65;0.05;;;8.60;91.40;;;;;;4951988;28;20031;-64
2023/12/23 01:37:50;;;;;;;0.20;0.10;;;8.60;91.40;;;;;;4949734;28;20027;-64
2023/12/23 01:40:15;;;;;;;0.00;0.00;;;8.50;91.40;;;;;;4949378;28;20139;-63
2023/12/23 01:42:41;;;;;;;0.65;0.20;;;8.50;91.40;;;;;;4948157;28;20027;-64
2023/12/23 01:45:07;;;;;;;0.10;0.10;;;8.50;91.40;;;;;;4945206;28;20035;-63
2023/12/23 01:47:34;;;;;;;0.20;0.17;;;8.50;91.50;;;;;;4944724;28;20498;-63
2023/12/23 01:50:02;;;;;;;0.13;0.10;;;8.50;91.40;;;;;;4945382;28;20059;-63
2023/12/23 01:52:29;;;;;;;0.30;0.10;;;8.50;91.40;;;;;;4945092;28;20046;-64
2023/12/23 01:54:55;;;;;;;1.20;0.10;;;8.50;91.40;;;;;;4950412;28;20031;-63
2023/12/23 01:57:21;;;;;;;0.65;0.10;;;8.50;91.50;;;;;;4944098;28;20067;-64
2023/12/23 01:59:46;;;;;;;0.57;0.00;;;8.50;91.40;;;;;;4945553;28;20058;-64
2023/12/23 02:02:12;;;;;;;0.10;0.10;;;8.50;91.50;;;;;;4945639;28;20066;-62
2023/12/23 02:04:38;;;;;;;0.00;0.00;;;8.50;91.50;;;;;;4947752;28;20091;-64
2023/12/23 02:07:04;;;;;;;0.20;0.10;;;8.50;91.40;;;;;;4948881;28;20381;-64
2023/12/23 02:09:30;;;;;;;0.65;0.20;;;8.40;91.40;;;;;;4948077;28;20043;-64
2023/12/23 02:12:19;;;;;;;0.43;0.20;;;8.50;91.50;;;;;;4947657;28;20035;-63
2023/12/23 02:15:12;;;;;;;0.10;0.10;;;8.40;91.50;;;;;;4948524;28;20127;-65
2023/12/23 02:17:39;;;;;;;0.10;0.10;;;8.40;91.60;;;;;;4948087;28;20046;-64
2023/12/23 02:20:05;;;;;;;0.10;0.10;;;8.40;91.50;;;;;;4945541;28;20434;-64
2023/12/23 02:22:30;;;;;;;0.08;0.00;;;8.40;91.50;;;;;;4945670;28;20102;-63
2023/12/23 02:24:56;;;;;;;0.20;0.10;;;8.40;91.50;;;;;;4948608;28;20031;-64
2023/12/23 02:27:29;;;;;;;0.75;0.10;;;8.40;91.60;;;;;;4944123;28;20084;-63
2023/12/23 02:29:56;;;;;;;0.20;0.13;;;8.40;91.60;;;;;;4945544;28;20039;-64
2023/12/23 02:32:24;;;;;;;0.10;0.10;;;8.40;91.60;;;;;;4946051;28;20043;-64
2023/12/23 02:34:50;;;;;;;0.40;0.10;;;8.40;91.60;;;;;;4949788;28;20530;-64
2023/12/23 02:37:16;;;;;;;0.10;0.10;;;8.40;91.60;;;;;;4944190;28;20046;-65
2023/12/23 02:39:41;;;;;;;0.10;0.10;;;8.40;91.60;;;;;;4950634;28;20031;-64
2023/12/23 02:42:07;;;;;;;1.65;0.20;;;8.40;91.60;;;;;;4948229;28;20082;-64
2023/12/23 02:44:33;;;;;;;0.50;0.10;;;8.40;91.60;;;;;;4952469;28;20572;-63
2023/12/23 02:46:58;;;;;;;0.10;0.00;;;8.40;91.60;;;;;;4954831;28;20555;-64
2023/12/23 02:49:24;;;;;;;0.10;0.10;;;8.40;91.60;;;;;;4948038;28;20135;-64
2023/12/23 02:51:49;;;;;;;0.25;0.10;;;8.40;91.50;;;;;;4946365;28;20518;-64
2023/12/23 02:54:15;;;;;;;0.20;0.00;;;8.40;91.50;;;;;;4947316;28;20117;-63
2023/12/23 02:56:40;;;;;;;0.40;0.00;;;8.30;91.50;;;;;;4952781;28;20039;-64
2023/12/23 02:59:06;;;;;;;0.13;0.00;;;8.40;91.60;;;;;;4948132;28;20043;-64
2023/12/23 03:01:31;;;;;;;0.77;0.10;;;8.40;91.60;;;;;;4949360;28;20103;-64
2023/12/23 03:03:57;;;;;;;0.00;0.00;;;8.30;91.90;;;;;;4948057;28;20116;-64
2023/12/23 03:06:22;;;;;;;0.20;0.00;;;8.40;91.60;;;;;;4949617;28;20059;-64
2023/12/23 03:08:48;;;;;;;0.60;0.10;;;8.30;91.50;;;;;;4951821;28;20414;-63
2023/12/23 03:11:14;;;;;;;0.00;0.00;;;8.40;91.50;;;;;;4950366;28;20404;-64
2023/12/23 03:13:39;;;;;;;0.20;0.00;;;8.40;91.50;;;;;;4953842;28;20035;-64
2023/12/23 03:16:18;;;;;;;0.10;0.10;;;8.40;91.50;;;;;;4950314;28;20050;-63
2023/12/23 03:18:44;;;;;;;0.00;0.00;;;8.40;91.50;;;;;;4948551;28;20028;-63
2023/12/23 03:21:10;;;;;;;0.25;0.10;;;8.40;91.50;;;;;;4946916;28;20035;-64
2023/12/23 03:23:36;;;;;;;0.10;0.05;;;8.30;91.40;;;;;;4955841;28;20400;-65
2023/12/23 03:26:01;;;;;;;0.35;0.00;;;8.30;91.50;;;;;;4952021;28;20031;-64
2023/12/23 03:28:27;;;;;;;0.43;0.00;;;8.30;91.40;;;;;;4945793;28;21196;-64
2023/12/23 03:30:52;;;;;;;0.10;0.10;;;8.30;91.40;;;;;;4947019;28;20183;-64
2023/12/23 03:33:18;;;;;;;0.30;0.00;;;8.40;91.40;;;;;;4951791;28;20039;-64
2023/12/23 03:35:43;;;;;;;0.10;0.00;;;8.40;91.40;;;;;;4953051;28;20027;-65
2023/12/23 03:38:09;;;;;;;0.05;0.00;;;8.40;91.40;;;;;;4948709;28;20035;-64
2023/12/23 03:40:35;;;;;;;0.22;0.03;;;8.30;91.40;;;;;;4945906;28;20216;-64
2023/12/23 03:43:00;;;;;;;0.10;0.10;;;8.30;91.40;;;;;;4942667;28;20135;-64
2023/12/23 03:45:26;;;;;;;0.15;0.10;;;8.30;91.40;;;;;;4949467;28;20031;-64
2023/12/23 03:47:51;;;;;;;0.10;0.10;;;8.30;91.40;;;;;;4952279;28;20094;-64
2023/12/23 03:50:17;;;;;;;0.13;0.10;;;8.40;91.40;;;;;;4944181;28;20047;-64
2023/12/23 03:52:43;;;;;;;0.30;0.10;;;8.40;91.40;;;;;;4948453;28;20047;-64
2023/12/23 03:55:11;;;;;;;0.15;0.10;;;8.30;91.30;;;;;;4946658;28;20045;-64
2023/12/23 03:57:36;;;;;;;0.40;0.10;;;8.30;91.30;;;;;;4945722;28;20417;-64
2023/12/23 04:00:04;;;;;;;0.00;0.00;;;8.40;91.40;;;;;;4946853;28;20033;-63
2023/12/23 04:02:30;;;;;;;0.20;0.10;;;8.40;91.30;;;;;;4948650;28;20079;-64
2023/12/23 04:04:55;;;;;;;0.30;0.10;;;8.30;91.70;;;;;;4950208;28;20035;-63
2023/12/23 04:07:21;;;;;;;0.28;0.10;;;8.30;91.70;;;;;;4945023;28;20098;-63
2023/12/23 04:09:46;;;;;;;0.20;0.10;;;8.40;91.30;;;;;;4948229;28;20046;-64
2023/12/23 04:12:12;;;;;;;0.17;0.10;;;8.30;91.30;;;;;;4948625;28;20114;-64
2023/12/23 04:14:40;;;;;;;0.15;0.10;;;8.30;91.30;;;;;;4951844;28;20377;-64
2023/12/23 04:17:06;;;;;;;0.63;0.10;;;8.40;91.30;;;;;;4950725;28;20051;-64
2023/12/23 04:19:31;;;;;;;0.22;0.10;;;8.30;91.30;;;;;;4945258;28;20039;-64
2023/12/23 04:21:58;;;;;;;0.30;0.25;;;8.40;91.30;;;;;;4948793;28;20035;-65
2023/12/23 04:24:26;;;;;;;0.10;0.10;;;8.30;91.30;;;;;;4946492;28;20443;-61
2023/12/23 04:26:52;;;;;;;0.57;0.10;;;8.40;91.30;;;;;;4946977;28;20035;-63
2023/12/23 04:29:17;;;;;;;0.28;0.10;;;8.40;91.30;;;;;;4945839;28;20042;-64
2023/12/23 04:31:43;;;;;;;0.13;0.10;;;8.40;91.30;;;;;;4948006;28;20407;-64
2023/12/23 04:34:10;;;;;;;0.47;0.20;;;8.40;91.20;;;;;;4950317;28;20043;-64
2023/12/23 04:36:36;;;;;;;1.33;0.20;;;8.40;91.20;;;;;;4949532;28;20095;-64
2023/12/23 04:39:04;;;;;;;0.30;0.10;;;8.40;91.20;;;;;;4955124;28;20046;-64
2023/12/23 04:41:30;;;;;;;0.52;0.08;;;8.40;91.20;;;;;;4948798;28;20055;-64
2023/12/23 04:43:55;;;;;;;0.90;0.10;;;8.40;91.20;;;;;;4948220;28;20055;-64
2023/12/23 04:46:21;;;;;;;0.20;0.10;;;8.40;91.20;;;;;;4946786;28;20039;-64
2023/12/23 04:48:47;;;;;;;0.10;0.10;;;8.30;91.10;;;;;;4946447;28;20043;-62
2023/12/23 04:51:12;;;;;;;0.60;0.30;;;8.40;91.20;;;;;;4945640;28;20050;-64
2023/12/23 04:53:38;;;;;;;0.68;0.10;;;8.30;91.10;;;;;;4949441;28;20039;-64
2023/12/23 04:56:04;;;;;;;0.55;0.20;;;8.30;91.10;;;;;;4949518;28;20035;-65
2023/12/23 04:58:29;;;;;;;0.15;0.08;;;8.40;91.20;;;;;;4946127;28;20063;-64
2023/12/23 05:00:55;;;;;;;0.10;0.10;;;8.30;91.20;;;;;;4950445;28;20028;-64
2023/12/23 05:03:20;;;;;;;0.25;0.10;;;8.30;91.20;;;;;;4949588;28;20047;-64
2023/12/23 05:05:46;;;;;;;0.08;0.08;;;8.30;91.20;;;;;;4950815;28;20034;-64
2023/12/23 05:08:16;;;;;;;0.10;0.10;;;8.40;91.20;;;;;;4953694;28;20506;-64
2023/12/23 05:10:43;;;;;;;0.22;0.10;;;8.30;91.20;;;;;;4946668;28;20032;-63
2023/12/23 05:13:08;;;;;;;0.22;0.10;;;8.30;91.20;;;;;;4944984;28;20171;-64
2023/12/23 05:15:34;;;;;;;0.10;0.10;;;8.30;91.20;;;;;;4946807;28;20113;-63
2023/12/23 05:17:59;;;;;;;0.80;0.13;;;8.40;91.20;;;;;;4949741;28;20031;-64
2023/12/23 05:20:25;;;;;;;0.20;0.13;;;8.40;91.20;;;;;;4948138;28;20491;-64
2023/12/23 05:22:50;;;;;;;0.40;0.10;;;8.30;91.10;;;;;;4943762;28;20458;-64
2023/12/23 05:25:16;;;;;;;0.75;0.10;;;8.40;91.10;;;;;;4947791;28;20039;-63
2023/12/23 05:27:41;;;;;;;0.10;0.10;;;8.40;91.10;;;;;;4945719;28;20028;-64
2023/12/23 05:30:08;;;;;;;0.30;0.10;;;8.30;91.00;;;;;;4948597;28;20127;-64
2023/12/23 05:32:33;;;;;;;0.57;0.10;;;8.30;91.00;;;;;;4945812;28;20134;-64
2023/12/23 05:34:59;;;;;;;1.45;0.20;;;8.30;91.00;;;;;;4947359;28;20138;-64
2023/12/23 05:37:24;;;;;;;0.50;0.10;;;8.30;91.00;;;;;;4943484;28;20046;-64
2023/12/23 05:39:50;;;;;;;0.55;0.15;;;8.30;91.00;;;;;;4950013;28;20042;-64
2023/12/23 05:42:15;;;;;;;0.38;0.20;;;8.30;90.90;;;;;;4949696;28;20039;-63
2023/12/23 05:44:41;;;;;;;0.20;0.10;;;8.30;90.90;;;;;;4955386;28;20053;-64
2023/12/23 05:47:07;;;;;;;0.30;0.13;;;8.30;90.90;;;;;;4947401;28;20399;-64
2023/12/23 05:49:32;;;;;;;0.10;0.10;;;8.40;90.90;;;;;;4945542;28;20040;-64
2023/12/23 05:51:58;;;;;;;1.10;0.20;;;8.40;90.90;;;;;;4947938;28;20035;-64
2023/12/23 05:54:23;;;;;;;1.00;0.20;;;8.30;90.80;;;;;;4945329;28;20426;-64
2023/12/23 05:56:49;;;;;;;0.20;0.10;;;8.40;90.80;;;;;;4946711;28;20032;-65
2023/12/23 05:59:14;;;;;;;0.13;0.10;;;8.30;90.80;;;;;;4945174;28;20035;-64
2023/12/23 06:01:40;;;;;;;0.45;0.10;;;8.40;90.80;;;;;;4943323;28;20411;-65
2023/12/23 06:04:05;;;;;;;0.28;0.20;;;8.30;90.70;;;;;;4954239;28;20050;-64
2023/12/23 06:06:31;;;;;;;0.73;0.10;;;8.30;90.70;;;;;;4948175;28;20035;-64
2023/12/23 06:08:57;;;;;;;0.20;0.03;;;8.40;90.70;;;;;;4949474;28;20046;-64
2023/12/23 06:11:22;;;;;;;0.15;0.10;;;8.40;90.70;;;;;;4943062;28;20065;-64
2023/12/23 06:13:48;;;;;;;0.20;0.10;;;8.40;90.70;;;;;;4949796;28;20741;-64
2023/12/23 06:16:13;;;;;;;0.25;0.10;;;8.40;90.60;;;;;;4947821;28;20594;-64
2023/12/23 06:18:39;;;;;;;0.10;0.10;;;8.40;90.60;;;;;;4949290;28;20047;-63
2023/12/23 06:21:04;;;;;;;0.22;0.10;;;8.40;90.60;;;;;;4950250;28;20035;-64
2023/12/23 06:23:30;;;;;;;0.20;0.10;;;8.30;90.50;;;;;;4953771;28;20043;-64
2023/12/23 06:25:56;;;;;;;0.70;0.10;;;8.30;90.50;;;;;;4950571;28;20039;-64
2023/12/23 06:28:21;;;;;;;0.25;0.10;;;8.40;90.50;;;;;;4949821;28;20050;-64
2023/12/23 06:30:47;;;;;;;0.30;0.20;;;8.30;90.50;;;;;;4949874;28;20038;-64
2023/12/23 06:33:12;;;;;;;1.20;0.10;;;8.30;90.50;;;;;;4944128;28;20122;-64
2023/12/23 06:35:38;;;;;;;0.15;0.10;;;8.30;90.50;;;;;;4948054;28;20043;-63
2023/12/23 06:38:03;;;;;;;0.20;0.10;;;8.30;90.60;;;;;;4949520;28;20507;-64
2023/12/23 06:40:29;;;;;;;0.40;0.10;;;8.30;90.60;;;;;;4953447;28;20399;-64
2023/12/23 06:42:55;;;;;;;0.60;0.13;;;8.30;90.50;;;;;;4949551;28;20395;-64
2023/12/23 06:45:20;;;;;;;0.40;0.13;;;8.30;90.50;;;;;;4947356;28;20582;-64
2023/12/23 06:47:46;;;;;;;0.10;0.10;;;8.30;90.50;;;;;;4948872;28;20051;-63
2023/12/23 06:50:12;;;;;;;0.40;0.10;;;8.30;90.50;;;;;;4949583;28;20446;-62
2023/12/23 06:52:38;;;;;;;0.60;0.20;;;8.30;90.50;;;;;;4950251;28;20506;-64
2023/12/23 06:55:04;;;;;;;0.13;0.03;;;8.30;90.50;;;;;;4948148;28;20119;-64
2023/12/23 06:57:29;;;;;;;0.20;0.10;;;8.30;90.50;;;;;;4948600;28;20038;-64
2023/12/23 06:59:58;;;;;;;0.10;0.10;;;8.30;90.50;;;;;;4951766;28;20035;-64
2023/12/23 07:02:24;;;;;;;0.98;0.00;;;8.30;90.40;;;;;;4952299;28;20127;-64
2023/12/23 07:04:50;;;;;;;0.22;0.10;;;8.30;90.40;;;;;;4948243;28;20154;-64
2023/12/23 07:07:16;;;;;;;1.25;0.10;;;8.30;90.40;;;;;;4951731;28;20403;-64
2023/12/23 07:09:41;;;;;;;0.57;0.10;;;8.30;90.30;;;;;;4949826;28;20526;-63
2023/12/23 07:12:08;;;;;;;0.10;0.00;;;8.30;90.30;;;;;;4952158;28;20039;-64
2023/12/23 07:14:33;;;;;;;0.20;0.10;;;8.30;90.30;;;;;;4951468;28;20043;-63
2023/12/23 07:16:59;;;;;;;1.20;0.05;;;8.30;90.20;;;;;;4951969;28;20522;-64
2023/12/23 07:19:25;;;;;;;0.20;0.10;;;8.30;90.30;;;;;;4950134;28;20530;-64
2023/12/23 07:21:53;;;;;;;0.82;0.10;;;8.30;90.30;;;;;;4951253;28;20047;-62
2023/12/23 07:24:19;;;;;;;0.15;0.10;;;8.30;90.30;;;;;;4951346;28;20070;-64
2023/12/23 07:26:45;;;;;;;0.28;0.20;;;8.30;90.30;;;;;;4947320;28;20050;-65
2023/12/23 07:29:10;;;;;;;0.32;0.10;;;8.30;90.30;;;;;;4950439;28;20039;-64
2023/12/23 07:31:36;;;;;;;0.10;0.10;;;8.30;90.20;;;;;;4952052;28;20058;-64
2023/12/23 07:34:02;;;;;;;0.63;0.20;;;8.30;90.30;;;;;;4949750;28;20031;-63
2023/12/23 07:36:28;;;;;;;0.20;0.13;;;8.30;90.30;;;;;;4932140;28;20043;-64
2023/12/23 07:38:54;;;;;;;0.52;0.10;;;8.40;90.20;;;;;;4943184;28;20046;-63
2023/12/23 07:41:19;;;;;;;0.45;0.05;;;8.30;90.20;;;;;;4944096;28;20050;-64
2023/12/23 07:43:45;;;;;;;0.43;0.10;;;8.40;90.20;;;;;;4946262;28;20030;-64
2023/12/23 07:46:11;;;;;;;0.00;0.00;;;8.40;90.20;;;;;;4947981;28;20642;-64
2023/12/23 07:48:37;;;;;;;0.10;0.08;;;8.40;90.20;;;;;;4946937;28;20075;-63
2023/12/23 07:51:09;;;;;;;0.40;0.00;;;8.40;90.20;;;;;;4942354;28;20125;-63
2023/12/23 07:53:35;;;;;;;0.10;0.10;;;8.40;90.20;;;;;;4947099;28;20031;-64
2023/12/23 07:56:01;;;;;;;0.20;0.20;;;8.40;90.20;;;;;;4946310;28;20054;-62
2023/12/23 07:58:27;;;;;;;0.20;0.13;;;8.40;90.20;;;;;;4945800;28;20495;-63
2023/12/23 08:00:52;;;;;;;0.30;0.20;;;8.40;90.20;;;;;;4945949;28;20118;-64
2023/12/23 08:03:18;;;;;;;0.47;0.20;;;8.40;90.30;;;;;;4940783;28;20143;-63
2023/12/23 08:05:44;;;;;;;0.13;0.10;;;8.40;90.20;;;;;;4947003;28;20039;-64
2023/12/23 08:08:10;;;;;;;0.10;0.05;;;8.50;90.20;;;;;;4944958;28;20067;-63
2023/12/23 08:10:37;;;;;;;0.15;0.15;;;8.40;90.20;;;;;;4942096;28;20055;-64
2023/12/23 08:13:03;;;;;;;0.22;0.20;;;8.40;90.20;;;;;;4939225;28;20051;-64
2023/12/23 08:15:28;;;;;;;0.10;0.10;;;8.50;90.20;;;;;;4938086;28;20135;-64
2023/12/23 08:17:54;;;;;;;0.30;0.20;;;8.50;90.20;;;;;;4942302;28;20714;-64
2023/12/23 08:20:20;;;;;;;0.80;0.30;;;8.50;90.10;;;;;;4942724;28;20054;-64
2023/12/23 08:22:45;;;;;;;0.38;0.20;;;8.60;90.20;;;;;;4940261;28;20043;-65
2023/12/23 08:25:11;;;;;;;0.65;0.20;;;8.50;90.00;;;;;;4947818;28;20035;-64
2023/12/23 08:27:38;;;;;;;0.43;0.20;;;8.60;90.00;;;;;;4947505;28;20090;-64
2023/12/23 08:30:05;;;;;;;0.35;0.20;;;8.50;90.00;;;;;;4942614;28;20036;-64
2023/12/23 08:32:31;;;;;;;0.47;0.20;;;8.50;90.00;;;;;;4936633;28;20039;-64
2023/12/23 08:34:57;;;;;;;0.43;0.20;;;8.60;90.00;;;;;;4935710;28;20389;-66
2023/12/23 08:37:22;;;;;;;0.10;0.10;;;8.50;90.00;;;;;;4943892;28;20039;-63
2023/12/23 08:39:48;;;;;;;0.55;0.30;;;8.50;90.00;;;;;;4944995;28;20035;-64
2023/12/23 08:42:14;;;;;;;0.47;0.17;;;8.60;90.00;;;;;;4948081;28;20043;-64
2023/12/23 08:44:39;;;;;;;1.23;0.10;;;8.50;90.00;;;;;;4948284;28;20042;-66
2023/12/23 08:47:05;;;;;;;0.60;0.22;;;8.60;90.00;;;;;;4949473;28;20032;-65
2023/12/23 08:49:31;;;;;;;0.40;0.25;;;8.50;89.70;;;;;;4940893;28;20035;-64
2023/12/23 08:51:56;;;;;;;0.90;0.20;;;8.50;89.70;;;;;;4942166;28;20052;-63
2023/12/23 08:54:22;;;;;;;0.15;0.10;;;8.60;90.00;;;;;;4945854;28;20437;-64
2023/12/23 08:56:48;;;;;;;0.10;0.10;;;8.60;89.90;;;;;;4942482;28;20507;-63
2023/12/23 08:59:13;;;;;;;0.20;0.13;;;8.60;89.80;;;;;;4942519;28;20061;-64
2023/12/23 09:01:39;;;;;;;0.40;0.20;;;8.60;89.70;;;;;;4941406;28;20574;-63
2023/12/23 09:04:04;;;;;;;0.28;0.10;;;8.60;89.70;;;;;;4942375;28;20042;-64
2023/12/23 09:06:30;;;;;;;0.32;0.20;;;8.60;89.50;;;;;;4939937;28;20032;-64
2023/12/23 09:08:57;;;;;;;0.10;0.10;;;8.60;89.70;;;;;;4941334;28;20058;-63
2023/12/23 09:11:23;;;;;;;0.57;0.30;;;8.60;89.70;;;;;;4943932;28;20050;-64
2023/12/23 09:13:49;;;;;;;0.22;0.10;;;8.60;90.30;;;;;;4944580;28;20040;-63
2023/12/23 09:16:16;;;;;;;0.22;0.20;;;8.60;90.00;;;;;;4943639;28;20040;-64
2023/12/23 09:18:42;;;;;;;0.30;0.10;;;8.60;90.00;;;;;;4944382;28;20043;-63
2023/12/23 09:21:07;;;;;;;0.20;0.10;;;8.60;90.00;;;;;;4943779;28;20046;-64
2023/12/23 09:23:33;;;;;;;0.10;0.10;;;8.70;90.10;;;;;;4938557;28;20031;-64
2023/12/23 09:25:59;;;;;;;0.40;0.22;;;8.70;90.10;;;;;;4943793;28;20423;-63
2023/12/23 09:28:24;;;;;;;0.20;0.20;;;8.60;90.10;;;;;;4940170;28;20407;-64
2023/12/23 09:30:50;;;;;;;0.32;0.15;;;8.60;90.10;;;;;;4942511;28;20122;-62
2023/12/23 09:33:16;;;;;;;0.20;0.10;;;8.60;90.10;;;;;;4948179;28;20031;-63
2023/12/23 09:35:42;;;;;;;0.17;0.10;;;8.60;90.20;;;;;;4947838;28;20046;-63
2023/12/23 09:38:09;;;;;;;0.57;0.30;;;8.60;90.20;;;;;;4945198;28;20035;-62
2023/12/23 09:40:36;;;;;;;0.57;0.40;;;8.50;90.20;;;;;;4943792;28;20035;-64
2023/12/23 09:43:02;;;;;;;0.75;0.10;;;8.50;90.30;;;;;;4940418;28;20036;-64
2023/12/23 09:45:30;;;;;;;0.85;0.20;;;8.50;90.30;;;;;;4940094;28;20050;-64
2023/12/23 09:47:55;;;;;;;0.10;0.10;;;8.50;90.40;;;;;;4950168;28;20039;-65
2023/12/23 09:50:21;;;;;;;0.25;0.15;;;8.50;90.40;;;;;;4946185;28;20035;-64
2023/12/23 09:52:52;;;;;;;0.60;0.20;;;8.50;90.50;;;;;;4946539;28;20687;-64
2023/12/23 09:55:18;;;;;;;0.10;0.10;;;8.50;90.50;;;;;;4943899;28;20031;-64
2023/12/23 09:57:44;;;;;;;0.20;0.10;;;8.50;90.50;;;;;;4947723;28;20046;-65
2023/12/23 10:00:11;;;;;;;0.25;0.20;;;8.50;90.40;;;;;;4949036;28;20031;-64
2023/12/23 10:02:36;;;;;;;0.20;0.10;;;8.50;90.50;;;;;;4951012;28;20035;-64
2023/12/23 10:05:02;;;;;;;0.10;0.10;;;8.50;90.50;;;;;;4948999;28;20086;-64
2023/12/23 10:07:28;;;;;;;0.43;0.25;;;8.50;90.50;;;;;;4948974;28;20074;-64
2023/12/23 10:09:53;;;;;;;1.02;0.22;;;8.50;90.50;;;;;;4949389;28;20443;-64
2023/12/23 10:12:20;;;;;;;0.30;0.13;;;8.50;90.50;;;;;;4949616;28;20035;-65
2023/12/23 10:14:48;;;;;;;0.10;0.10;;;8.50;90.50;;;;;;4948640;28;20028;-64
2023/12/23 10:17:14;;;;;;;0.10;0.10;;;8.50;90.60;;;;;;4946321;28;20496;-64
2023/12/23 10:19:39;;;;;;;1.40;0.20;;;8.50;90.60;;;;;;4946232;28;20031;-62
2023/12/23 10:22:06;;;;;;;0.25;0.20;;;8.50;90.70;;;;;;4948389;28;20042;-63
2023/12/23 10:24:31;;;;;;;0.63;0.10;;;8.50;90.80;;;;;;4946791;28;20035;-63
2023/12/23 10:26:58;;;;;;;1.70;0.13;;;8.40;90.70;;;;;;4947116;28;20058;-63
2023/12/23 10:29:26;;;;;;;0.20;0.20;;;8.50;90.80;;;;;;4943283;28;20311;-63
2023/12/23 10:31:55;;;;;;;0.70;0.20;;;8.50;90.80;;;;;;4940284;28;20039;-63
2023/12/23 10:34:23;;;;;;;0.20;0.10;;;8.50;90.80;;;;;;4943076;28;20039;-63
2023/12/23 10:36:51;;;;;;;2.20;0.47;;;8.50;90.80;;;;;;4943207;28;20045;-66
2023/12/23 10:39:24;;;;;;;1.08;0.20;;;8.40;90.70;;;;;;4950760;28;20160;-63
2023/12/23 10:41:57;;;;;;;0.40;0.20;;;8.40;90.80;;;;;;4944346;28;20048;-63
2023/12/23 10:44:24;;;;;;;0.35;0.20;;;8.50;90.90;;;;;;4945136;28;20043;-63
2023/12/23 10:46:51;;;;;;;0.80;0.20;;;8.50;90.80;;;;;;4942139;28;20042;-63
2023/12/23 10:49:18;;;;;;;0.20;0.10;;;8.50;90.90;;;;;;4945189;28;20118;-63
2023/12/23 10:51:47;;;;;;;0.98;0.10;;;8.40;90.80;;;;;;4942377;28;20038;-63
2023/12/23 10:54:13;;;;;;;1.00;0.40;;;8.50;90.80;;;;;;4952320;28;20039;-63
2023/12/23 10:56:40;;;;;;;0.30;0.20;;;8.40;90.90;;;;;;4946438;28;20247;-63
2023/12/23 10:59:07;;;;;;;0.47;0.32;;;8.40;90.90;;;;;;4944688;28;20039;-63
2023/12/23 11:01:35;;;;;;;0.73;0.40;;;8.40;90.90;;;;;;4946307;28;20032;-63
2023/12/23 11:04:02;;;;;;;0.30;0.30;;;8.40;90.90;;;;;;4943293;28;20126;-62
2023/12/23 11:06:33;;;;;;;0.25;0.10;;;8.40;90.80;;;;;;4945803;28;20529;-62
2023/12/23 11:09:01;;;;;;;0.13;0.10;;;8.40;90.80;;;;;;4948301;28;20577;-63
2023/12/23 11:11:29;;;;;;;0.73;0.20;;;8.40;90.80;;;;;;4945945;28;20086;-63
2023/12/23 11:13:55;;;;;;;0.30;0.10;;;8.40;90.90;;;;;;4950599;28;20411;-63
2023/12/23 11:16:20;;;;;;;0.10;0.10;;;8.40;90.80;;;;;;4951101;28;20045;-63
2023/12/23 11:18:46;;;;;;;1.27;0.10;;;8.40;90.80;;;;;;4947562;28;20110;-63
2023/12/23 11:21:17;;;;;;;1.17;0.20;;;8.40;90.80;;;;;;4949764;28;20463;-64
2023/12/23 11:23:43;;;;;;;0.13;0.10;;;8.40;90.90;;;;;;4947615;28;20122;-62
2023/12/23 11:26:41;;;;;;;0.20;0.10;;;8.40;90.90;;;;;;4950044;28;20067;-63
2023/12/23 11:29:08;;;;;;;0.20;0.10;;;8.40;90.90;;;;;;4950291;28;20038;-63
2023/12/23 11:31:33;;;;;;;1.65;0.10;;;8.40;90.90;;;;;;4947518;28;20044;-62
2023/12/23 11:33:59;;;;;;;0.10;0.10;;;8.40;90.90;;;;;;4949600;28;20368;-61
2023/12/23 11:36:25;;;;;;;0.32;0.13;;;8.40;90.90;;;;;;4943928;28;20441;-63
2023/12/23 11:38:52;;;;;;;0.10;0.10;;;8.30;90.90;;;;;;4947793;28;20056;-63
2023/12/23 11:41:19;;;;;;;0.20;0.10;;;8.30;90.90;;;;;;4946842;28;20174;-63
2023/12/23 11:43:46;;;;;;;0.20;0.13;;;8.40;90.90;;;;;;4951554;28;20042;-63
2023/12/23 11:46:13;;;;;;;0.28;0.10;;;8.40;90.90;;;;;;4949564;28;20043;-65
2023/12/23 11:48:38;;;;;;;0.65;0.20;;;8.40;91.00;;;;;;4949352;28;20415;-64
2023/12/23 11:51:06;;;;;;;0.13;0.10;;;8.40;91.00;;;;;;4947803;28;20131;-63
2023/12/23 11:53:32;;;;;;;0.20;0.20;;;8.40;91.00;;;;;;4944259;28;20050;-65
2023/12/23 11:55:59;;;;;;;2.28;0.35;;;8.30;91.00;;;;;;4945277;28;20039;-63
2023/12/23 11:58:25;;;;;;;0.22;0.13;;;8.30;91.00;;;;;;4947085;28;20031;-65
2023/12/23 12:00:51;;;;;;;1.20;0.20;;;8.30;91.00;;;;;;4942559;28;20086;-65
2023/12/23 12:03:17;;;;;;;0.10;0.10;;;8.30;91.00;;;;;;4944713;28;20472;-65
2023/12/23 12:05:43;;;;;;;0.10;0.10;;;8.30;91.00;;;;;;4950105;28;20115;-65
2023/12/23 12:08:09;;;;;;;1.13;0.20;;;8.30;91.00;;;;;;4947440;28;20098;-66
2023/12/23 12:10:34;;;;;;;0.45;0.15;;;8.30;91.10;;;;;;4948881;28;20127;-65
2023/12/23 12:13:00;;;;;;;0.10;0.10;;;8.30;91.00;;;;;;4951071;28;20495;-65
2023/12/23 12:15:26;;;;;;;0.25;0.20;;;8.30;91.00;;;;;;4950732;28;20384;-65
2023/12/23 12:17:54;;;;;;;0.22;0.10;;;8.30;91.00;;;;;;4954621;28;20059;-65
2023/12/23 12:20:22;;;;;;;0.85;0.30;;;8.30;91.00;;;;;;4952147;28;20502;-65
2023/12/23 12:22:48;;;;;;;1.33;0.30;;;8.30;91.00;;;;;;4948984;28;20078;-65
2023/12/23 12:25:14;;;;;;;0.50;0.40;;;8.30;91.00;;;;;;4956215;28;20049;-65
2023/12/23 12:27:40;;;;;;;0.70;0.30;;;8.30;91.00;;;;;;4953811;28;20122;-65
2023/12/23 12:30:08;;;;;;;0.20;0.20;;;8.30;91.00;;;;;;4950463;28;20034;-65
2023/12/23 12:32:34;;;;;;;0.20;0.20;;;8.30;91.00;;;;;;4953869;28;20046;-64
2023/12/23 12:35:01;;;;;;;0.30;0.20;;;8.30;91.00;;;;;;4951565;28;20040;-65
2023/12/23 12:37:27;;;;;;;0.20;0.10;;;8.30;91.00;;;;;;4947882;28;20031;-65
2023/12/23 12:39:53;;;;;;;0.30;0.30;;;8.30;91.00;;;;;;4950198;28;20450;-65
2023/12/23 12:42:19;;;;;;;1.85;0.25;;;8.30;91.00;;;;;;4952839;28;20038;-65
2023/12/23 12:44:44;;;;;;;0.95;0.30;;;8.30;91.00;;;;;;4951108;28;20035;-65
2023/12/23 12:47:10;;;;;;;0.50;0.30;;;8.30;91.00;;;;;;4948909;28;20043;-64
2023/12/23 12:49:45;;;;;;;0.50;0.47;;;8.30;91.10;;;;;;4946060;28;20042;-65
2023/12/23 12:52:11;;;;;;;0.20;0.20;;;8.30;91.10;;;;;;4948301;28;20066;-65